Tiempo atmosférico en la estación meteorológica de Larraga, Navarra (375 m.)



Fecha
DESCASC
Temp. máxima en grados centígrados (hora)
DESCASC
Temp. mínima en grados centígrados (hora)
DESCASC
Temp. media en grados centígrados
DESCASC
Racha de viento máxima en m/sg (hora)
DESCASC
Velocidad máxima media en intervalos de 10 minutos(hora)
DESCASC
Precipitaciones diarias en mm
DESCASC
Precipitaciones de 00:00 a 06:00 en mm
DESCASC
Precipitaciones de 06:00 a 12:00 en mm
DESCASC
Precipitaciones de 12:00 a 18:00 en mm
DESCASC
Precipitaciones de 18:00 a 24:00 en mm
DESCASC
05-04-2020 17 (16:50) 8.3 (07:30) 12.7 17.78 (13:20) 12.78 (11:50) 0 0 0 0 0
04-04-2020 18 (17:00) 1.1 (06:50) 9.6 15.83 (19:20) 10.83 (18:20) 0 0 0 0 0
03-04-2020 15.4 (17:50) 2.1 (07:30) 8.7 10 (13:10) 6.39 (10:30) 0 0 0 0 0
02-04-2020 14.8 (14:00) 5.5 (00:00) 10.2 13.61 (19:20) 9.17 (18:40) 1 1 0 0 0
01-04-2020 10.5 (16:00) 5.2 (00:00) 7.8 8.61 (17:30) 5.83 (17:30) 12.4 0.6 5 4.8 2
31-03-2020 5.5 (19:20) 0.1 (00:00) 2.8 5.56 (04:20) 3.89 (04:30) 13 0.2 4.4 7.2 1.2
30-03-2020 7.5 (17:20) 2 (00:00) 4.8 12.5 (13:40) 8.33 (01:30) 0 0 0 0 0
29-03-2020 14.4 (16:20) 3 (00:00) 8.7 14.44 (22:20) 9.44 (19:30) 0 0 0 0 0
28-03-2020 17.6 (16:50) 1 (00:00) 9.3 8.33 (21:20) 6.11 (21:20) 0 0 0 0 0
27-03-2020 14.9 (17:00) 0.2 (00:00) 7.5 7.5 (13:30) 3.61 (20:20) 0 0 0 0 0
26-03-2020 11.7 (15:00) 1.6 (00:00) 6.6 17.22 (10:50) 11.67 (13:20) 0 0 0 0 0
25-03-2020 13.2 (16:10) 3.4 (00:00) 8.3 11.39 (18:20) 8.06 (12:50) 0 0 0 0 0
24-03-2020 16.6 (15:50) 7.9 (00:00) 12.3 5.56 (11:50) 3.61 (10:40) 0 0 0 0 0
23-03-2020 15.6 (16:20) 8.8 (00:00) 12.2 9.17 (17:50) 6.67 (18:00) 3.6 0.6 0 1.6 1.4
22-03-2020 16.8 (15:20) 2.9 (07:50) 9.8 6.94 (21:40) 4.72 (21:40) 0 0 0 0 0
21-03-2020 15 (15:20) 5.3 (00:00) 10.2 10.83 (13:30) 6.94 (17:10) 0 0 0 0 0
20-03-2020 14.9 (15:50) 4.2 (00:00) 9.5 11.67 (15:20) 8.06 (17:00) 0 0 0 0 0
19-03-2020 17 (15:20) 5.8 (00:00) 11.4 7.78 (15:10) 5.56 (15:10) 0 0 0 0 0
18-03-2020 16.6 (16:20) 5.2 (00:00) 10.9 5.56 (15:50) 3.61 (17:30) 0.2 0 0.2 0 0
17-03-2020 12.5 (17:10) 7.4 (00:00) 10 7.5 (06:00) 5 (06:40) 0 0 0 0 0
16-03-2020 -- (--) -- (--) -- -- (--) -- (--) -- -- -- -- 5.8
15-03-2020 -- (--) -- (--) -- -- (--) -- (--) -- 0 0 0 --
14-03-2020 15.9 (15:40) 2.4 (00:00) 9.1 8.06 (16:20) 5.83 (18:30) 0 0 0 0 0
13-03-2020 13.9 (13:50) 4.4 (23:59) 9.1 12.78 (04:40) 8.06 (04:40) 0 0 0 0 0
12-03-2020 18.4 (14:10) 9.6 (00:00) 14 11.94 (08:20) 7.78 (18:00) 1.6 0 0 0 1.6
11-03-2020 21.8 (16:50) 4.5 (00:00) 13.1 3.61 (01:20) 2.78 (21:40) 0 0 0 0 0

Gráficas

Temp. máximas Temp. mínimas Temp. medias Precipitaciones Rachas de viento máximas Velocidades máximas media en intervalos de 10 minutos

Datos horarios

Fecha y hora oficial Temperatura (ºC) Velocidad del viento (km/h) Dirección del viento Racha (km/h) Dirección de racha Precipitación (mm) Presión (hPa) Tendencia (hPa) Humedad (%)
2020-04-09 23:00:00 14.5 18 Sudeste 24 Sudeste 0 -- -- 75
2020-04-09 22:00:00 14.8 9 Sudeste 16 Sudeste 0 -- -- 76
2020-04-09 21:00:00 15.4 12 Sudeste 21 Sudeste 0 -- -- 74
2020-04-09 20:00:00 16.4 12 Sudeste 21 Sudeste 0 -- -- 73
2020-04-09 19:00:00 18.4 16 Sudeste 29 Sudeste 0 -- -- 65
2020-04-09 18:00:00 19.1 21 Sudeste 40 Este 0 -- -- 60
2020-04-09 17:00:00 20.3 21 Sudeste 33 Sudeste 0 -- -- 60
2020-04-09 16:00:00 19.9 21 Sudeste 35 Este 0 -- -- 63
2020-04-09 15:00:00 19.2 20 Sudeste 31 Sudeste 0 -- -- 61
2020-04-09 14:00:00 18.4 23 Sudeste 30 Sudeste 0 -- -- 65
2020-04-09 13:00:00 17.1 18 Sudeste 32 Sudeste 0 -- -- 62
2020-04-09 12:00:00 15.5 18 Sudeste 27 Sudeste 0 -- -- 67
2020-04-09 11:00:00 14 8 Sudeste 17 Sudeste 0 -- -- 74
2020-04-09 10:00:00 11.5 0 Calma 5 Nordeste 0 -- -- 85
2020-04-09 09:00:00 7.4 2 Noroeste 10 Noroeste 0 -- -- 96
2020-04-09 08:00:00 6.5 0 Calma 4 Norte 0 -- -- 96
2020-04-09 07:00:00 6.7 0 Calma 9 Norte 0 -- -- 95
2020-04-09 06:00:00 7.4 6 Noroeste 8 Norte 0 -- -- 95
2020-04-09 05:00:00 7.8 4 Norte 10 Norte 0 -- -- 94
2020-04-09 04:00:00 8.5 6 Norte 8 Norte 0 -- -- 94
2020-04-09 03:00:00 9.1 4 Noroeste 7 Noroeste 0 -- -- 91
2020-04-09 02:00:00 9.5 5 Noroeste 10 Noroeste 0 -- -- 94
2020-04-09 01:00:00 10.3 4 Noroeste 7 Norte 0 -- -- 91
2020-04-09 00:00:00 11 4 Norte 9 Nordeste 0 -- -- 92
2020-04-08 23:00:00 11.9 6 Norte 9 Nordeste 0 -- -- 89
2020-04-08 22:00:00 14.4 4 Norte 6 Noroeste 0 -- -- 82
2020-04-08 21:00:00 15.7 4 Sudoeste 5 Sudoeste 0 -- -- 78
2020-04-08 20:00:00 16.2 6 Sur 10 Sudeste 0 -- -- 75
2020-04-08 19:00:00 17.7 5 Sur 15 Sur 0 -- -- 66
2020-04-08 18:00:00 18.2 10 Sudeste 15 Sudeste 0 -- -- 62
2020-04-08 17:00:00 18.5 9 Sur 17 Sur 0 -- -- 59
2020-04-08 16:00:00 17.3 7 Sudeste 18 Este 0 -- -- 65
2020-04-08 15:00:00 16.9 10 Sudeste 22 Este 0 -- -- 64
2020-04-08 14:00:00 15.7 10 Sudeste 18 Sur 0 -- -- 64
2020-04-08 13:00:00 13.6 7 Sudeste 14 Este 0 -- -- 68
2020-04-08 12:00:00 13.1 7 Este 14 Sudeste 0 -- -- 73
2020-04-08 11:00:00 12.1 5 Sudeste 9 Sudeste 0 -- -- 78
2020-04-08 10:00:00 11.2 2 Oeste 4 Oeste 0 -- -- 81
2020-04-08 09:00:00 10.8 3 Oeste 5 Sur 0 -- -- 86
2020-04-08 08:00:00 10.7 2 Oeste 10 Sudeste 0 -- -- 86
2020-04-08 07:00:00 10.8 6 Sur 12 Sudeste 0 -- -- 86
2020-04-08 06:00:00 11.2 9 Sudeste 14 Sudeste 0 -- -- 81
2020-04-08 05:00:00 11.4 4 Este 15 Sudeste 0 -- -- 86
2020-04-08 04:00:00 11.6 12 Sudeste 23 Sudeste 0 -- -- 85
2020-04-08 03:00:00 11.5 13 Sudeste 17 Sudeste 0 -- -- 86
2020-04-08 02:00:00 11.6 10 Sudeste 18 Sudeste 0 -- -- 89
2020-04-08 01:00:00 12.1 12 Sudeste 20 Este 0 -- -- 87
2020-04-08 00:00:00 12.2 10 Sudeste 17 Sudeste 0 -- -- 88
2020-04-07 23:00:00 12.6 15 Sudeste 22 Sudeste 0 -- -- 86
2020-04-07 22:00:00 12.6 9 Sudeste 26 Sudeste 0 -- -- 86
2020-04-07 21:00:00 13.2 8 Sudeste 19 Sudeste 0 -- -- 84
2020-04-07 20:00:00 13.4 11 Sudeste 19 Sudeste 0 -- -- 85
2020-04-07 19:00:00 13.8 10 Sudeste 24 Sudeste 0 -- -- 83
2020-04-07 18:00:00 13.6 17 Sudeste 30 Sudeste 0 -- -- 83
2020-04-07 17:00:00 13.6 18 Sudeste 35 Sudeste 0 -- -- 84
2020-04-07 16:00:00 13.5 25 Sudeste 42 Sudeste 0 -- -- 84
2020-04-07 15:00:00 13 31 Sudeste 42 Sudeste 0 -- -- 86
2020-04-07 14:00:00 12.1 24 Sudeste 36 Este 0 -- -- 88
2020-04-07 13:00:00 11.4 19 Sudeste 28 Sudeste 0 -- -- 90
2020-04-07 12:00:00 10.4 17 Sudeste 32 Sudeste 0.6 -- -- 92
2020-04-07 11:00:00 10.1 23 Sudeste 35 Sudeste 0.4 -- -- 91
2020-04-07 10:00:00 10.2 22 Sudeste 35 Este 0.6 -- -- 93
2020-04-07 09:00:00 10.3 19 Sudeste 29 Sudeste 0.4 -- -- 91
2020-04-07 08:00:00 10.5 15 Sudeste 23 Sudeste 0 -- -- 92
2020-04-07 07:00:00 10.8 8 Sudeste 22 Sudeste 0 -- -- 93
2020-04-07 06:00:00 10.9 9 Sudeste 14 Sudeste 0 -- -- 94
2020-04-07 05:00:00 10.9 5 Sudeste 8 Este 0 -- -- 94
2020-04-07 04:00:00 10.9 3 Sudeste 7 Sudeste 0 -- -- 95
2020-04-07 03:00:00 11 3 Norte 5 Norte 0 -- -- 95
2020-04-07 02:00:00 11 3 Noroeste 7 Noroeste 0 -- -- 96
2020-04-07 01:00:00 11 3 Noroeste 8 Nordeste 0 -- -- 96
2020-04-07 00:00:00 11.1 6 Norte 14 Norte 0.2 -- -- 96
2020-04-06 23:00:00 11.1 10 Norte 17 Norte 1.2 -- -- 94
2020-04-06 22:00:00 11.2 5 Noroeste 9 Noroeste 1.6 -- -- 93
2020-04-06 21:00:00 12 5 Norte 11 Sudeste 0.2 -- -- 87
2020-04-06 20:00:00 12.8 11 Sudeste 26 Sudeste 0 -- -- 77
2020-04-06 19:00:00 13.5 14 Sudeste 27 Sudeste 0 -- -- 76
2020-04-06 18:00:00 13.7 19 Sudeste 27 Sudeste 0.4 -- -- 78
2020-04-06 17:00:00 13.6 6 Sur 29 Sudeste 0.4 -- -- 80
2020-04-06 16:00:00 15.2 24 Sudeste 34 Sudeste 0 -- -- 62
2020-04-06 15:00:00 14.2 21 Sudeste 34 Sudeste 0 -- -- 65
2020-04-06 14:00:00 14.1 25 Sudeste 42 Sudeste 0 -- -- 64
2020-04-06 13:00:00 12.7 28 Sudeste 42 Sudeste 0 -- -- 68
2020-04-06 12:00:00 11.2 17 Sudeste 24 Sudeste 0 -- -- 75
2020-04-06 11:00:00 10.6 18 Sudeste 26 Sudeste 0 -- -- 79
2020-04-06 10:00:00 9.5 15 Sudeste 26 Sudeste 0 -- -- 81
2020-04-06 09:00:00 9 17 Sudeste 24 Sudeste 0 -- -- 84
2020-04-06 08:00:00 8.9 10 Sudeste 28 Sudeste 0 -- -- 86
2020-04-06 07:00:00 9.1 20 Sudeste 30 Sudeste 0.2 -- -- 85
2020-04-06 06:00:00 9.4 24 Sudeste 41 Sudeste 0 -- -- 83
2020-04-06 05:00:00 9.9 16 Sudeste 28 Sudeste 0.2 -- -- 87
2020-04-06 04:00:00 10.4 14 Sudeste 33 Sur 0.2 -- -- 85
2020-04-06 03:00:00 11.2 18 Sudeste 33 Sudeste 0 -- -- 80
2020-04-06 02:00:00 11.9 25 Sudeste 43 Sudeste 0 -- -- 78
2020-04-06 01:00:00 12.1 28 Sudeste 39 Sudeste 0 -- -- 78
2020-04-06 00:00:00 12.4 24 Sudeste 44 Sudeste 0 -- -- 73
2020-04-05 23:00:00 12.1 28 Sudeste 38 Sudeste 0 -- -- 70
2020-04-05 22:00:00 12.9 31 Sudeste 40 Sudeste 0 -- -- 67
2020-04-05 21:00:00 13.1 19 Sudeste 43 Sudeste 0 -- -- 69
2020-04-05 20:00:00 14.9 31 Sudeste 46 Sudeste 0 -- -- 62
2020-04-05 19:00:00 15.5 33 Sudeste 61 Sudeste 0 -- -- 59
2020-04-05 18:00:00 16.5 33 Sudeste 58 Sudeste 0 -- -- 58
2020-04-05 17:00:00 16.9 39 Sudeste 58 Sudeste 0 -- -- 56
2020-04-05 16:00:00 16.5 39 Sudeste 62 Sudeste 0 -- -- 57
2020-04-05 15:00:00 16.2 44 Sudeste 58 Sudeste 0 -- -- 60
2020-04-05 14:00:00 14.5 40 Sudeste 64 Sudeste 0 -- -- 63
2020-04-05 13:00:00 14.1 42 Sudeste 55 Sudeste 0 -- -- 61
2020-04-05 12:00:00 12.1 42 Sudeste 62 Sudeste 0 -- -- 63
2020-04-05 11:00:00 10.7 35 Sudeste 44 Sudeste 0 -- -- 71
2020-04-05 10:00:00 9.7 25 Sudeste 44 Sudeste 0 -- -- 75
2020-04-05 09:00:00 9.1 26 Sudeste 45 Sudeste 0 -- -- 74
2020-04-05 08:00:00 8.6 32 Sudeste 45 Sudeste 0 -- -- 76
2020-04-05 07:00:00 8.6 16 Sudeste 43 Sudeste 0 -- -- 78
2020-04-05 06:00:00 8.6 30 Sudeste 40 Sudeste 0 -- -- 76
2020-04-05 05:00:00 8.8 21 Sudeste 42 Sudeste 0 -- -- 74
2020-04-05 04:00:00 9.2 25 Sudeste 37 Sudeste 0 -- -- 73
2020-04-05 03:00:00 9.6 22 Sudeste 40 Sudeste 0 -- -- 75
2020-04-05 02:00:00 10.2 28 Sudeste 53 Sudeste 0 -- -- 75
2020-04-05 01:00:00 10.9 39 Sudeste 53 Sudeste 0 -- -- 74
2020-04-05 00:00:00 11.8 32 Sudeste 48 Sudeste 0 -- -- 69
2020-04-04 23:00:00 12.5 31 Sudeste 41 Sudeste 0 -- -- 65
2020-04-04 22:00:00 13.4 29 Sudeste 45 Sudeste 0 -- -- 60
2020-04-04 21:00:00 13.6 26 Sudeste 40 Sudeste 0 -- -- 59
2020-04-04 20:00:00 15.2 31 Sudeste 57 Sudeste 0 -- -- 55
2020-04-04 19:00:00 16.8 35 Sudeste 53 Sudeste 0 -- -- 53
2020-04-04 18:00:00 17.5 36 Sudeste 49 Sudeste 0 -- -- 52
2020-04-04 17:00:00 18 31 Sudeste 47 Sudeste 0 -- -- 52
2020-04-04 16:00:00 17.4 34 Sudeste 48 Sudeste 0 -- -- 50
2020-04-04 15:00:00 16.7 33 Sudeste 46 Sudeste 0 -- -- 54
2020-04-04 14:00:00 15.9 31 Sudeste 44 Sudeste 0 -- -- 57
2020-04-04 13:00:00 14.9 27 Sudeste 38 Sudeste 0 -- -- 63
2020-04-04 12:00:00 12.5 12 Sudeste 22 Sudeste 0 -- -- 73
2020-04-04 11:00:00 9.7 8 Sudeste 13 Sudeste 0 -- -- 76
2020-04-04 10:00:00 5.5 3 Noroeste 5 Noroeste 0 -- -- 90
2020-04-04 09:00:00 2.7 0 Calma 7 Norte 0 -- -- 90
2020-04-04 08:00:00 1.6 4 Norte 11 Norte 0 -- -- 93
2020-04-04 07:00:00 1.3 6 Norte 10 Norte 0 -- -- 94
2020-04-04 06:00:00 1.3 6 Norte 8 Norte 0 -- -- 92
2020-04-04 05:00:00 3 4 Norte 8 Norte 0 -- -- 89
2020-04-04 04:00:00 2.4 7 Noroeste 9 Norte 0 -- -- 90
2020-04-04 03:00:00 3.5 4 Norte 8 Noroeste 0 -- -- 88
2020-04-04 02:00:00 3.8 3 Noroeste 13 Noroeste 0 -- -- 89
2020-04-04 01:00:00 5.2 4 Noroeste 6 Noroeste 0 -- -- 81
2020-04-04 00:00:00 5.4 2 Noroeste 12 Norte 0 -- -- 81
2020-04-03 23:00:00 8.4 9 Norte 28 Norte 0 -- -- 69
2020-04-03 22:00:00 9.7 14 Norte 26 Norte 0 -- -- 65
2020-04-03 21:00:00 11.3 14 Norte 21 Norte 0 -- -- 59
2020-04-03 20:00:00 13.3 11 Norte 21 Nordeste 0 -- -- 53
2020-04-03 19:00:00 14.6 10 Norte 19 Norte 0 -- -- 49
2020-04-03 18:00:00 15.4 5 Norte 18 Norte 0 -- -- 45
2020-04-03 17:00:00 14.9 9 Nordeste 22 Norte 0 -- -- 46
2020-04-03 16:00:00 14.3 8 Norte 26 Noroeste 0 -- -- 51
2020-04-03 15:00:00 13.5 14 Noroeste 31 Noroeste 0 -- -- 53
2020-04-03 14:00:00 12.5 16 Noroeste 36 Noroeste 0 -- -- 58
2020-04-03 13:00:00 11.6 17 Noroeste 30 Noroeste 0 -- -- 58
2020-04-03 12:00:00 10.5 20 Norte 28 Noroeste 0 -- -- 61
2020-04-03 11:00:00 8.9 22 Noroeste 30 Oeste 0 -- -- 69
2020-04-03 10:00:00 6.6 15 Oeste 23 Oeste 0 -- -- 78
2020-04-03 09:00:00 3.3 4 Sudoeste 20 Oeste 0 -- -- 87
2020-04-03 08:00:00 2.9 11 Oeste 19 Oeste 0 -- -- 85
2020-04-03 07:00:00 3 12 Oeste 23 Oeste 0 -- -- 84
2020-04-03 06:00:00 2.8 9 Noroeste 20 Oeste 0 -- -- 85
2020-04-03 05:00:00 3.7 6 Oeste 22 Oeste 0 -- -- 80
2020-04-03 04:00:00 3.6 14 Noroeste 30 Oeste 0 -- -- 82
2020-04-03 03:00:00 3.5 14 Oeste 22 Noroeste 0 -- -- 82
2020-04-03 02:00:00 4.4 9 Noroeste 20 Noroeste 0 -- -- 78
2020-04-03 01:00:00 5.2 16 Noroeste 22 Noroeste 0 -- -- 78
2020-04-03 00:00:00 5.5 9 Oeste 13 Noroeste 0 -- -- 77
2020-04-02 23:00:00 6.3 6 Noroeste 33 Noroeste 0 -- -- 74
2020-04-02 22:00:00 8.3 31 Noroeste 43 Noroeste 0 -- -- 67
2020-04-02 21:00:00 9.4 18 Noroeste 43 Noroeste 0 -- -- 68
2020-04-02 20:00:00 11.4 29 Noroeste 49 Norte 0 -- -- 62
2020-04-02 19:00:00 13.2 33 Noroeste 45 Noroeste 0 -- -- 56
2020-04-02 18:00:00 13.2 23 Norte 41 Norte 0 -- -- 59
2020-04-02 17:00:00 14.6 23 Norte 45 Noroeste 0 -- -- 58
2020-04-02 16:00:00 14.5 31 Noroeste 42 Noroeste 0 -- -- 65
2020-04-02 15:00:00 14.4 30 Noroeste 44 Noroeste 0 -- -- 63
2020-04-02 14:00:00 14.8 26 Noroeste 44 Noroeste 0 -- -- 60
2020-04-02 13:00:00 14.3 23 Norte 37 Norte 0 -- -- 63
2020-04-02 12:00:00 13.4 25 Norte 37 Noroeste 0 -- -- 69
2020-04-02 11:00:00 11.5 11 Noroeste 17 Noroeste 0 -- -- 78
2020-04-02 10:00:00 8.8 4 Oeste 8 Oeste 0 -- -- 99
2020-04-02 09:00:00 7.2 4 Oeste 5 Noroeste 0 -- -- 98
2020-04-02 08:00:00 7.2 4 Noroeste 7 Noroeste 0 -- -- 98
2020-04-02 07:00:00 7.5 0 Calma 3 Oeste 0 -- -- 98
2020-04-02 06:00:00 7.7 3 Noroeste 5 Noroeste 0 -- -- 98
2020-04-02 05:00:00 7.8 3 Noroeste 4 Noroeste 0 -- -- 98
2020-04-02 04:00:00 7.8 0 Calma 4 Noroeste 0 -- -- 98
2020-04-02 03:00:00 7.8 3 Noroeste 5 Noroeste 0 -- -- 98
2020-04-02 02:00:00 8 2 Noroeste 3 Noroeste 0.2 -- -- 97
2020-04-02 01:00:00 8.3 0 Calma 4 Noroeste 0.8 -- -- 97
2020-04-02 00:00:00 8.4 3 Norte 4 Noroeste 0.8 -- -- 97
2020-04-01 23:00:00 8.5 3 Nordeste 7 Sudeste 0.4 -- -- 96
2020-04-01 22:00:00 8.7 6 Sudeste 12 Sudeste 0.4 -- -- 95
2020-04-01 21:00:00 9.3 3 Sur 5 Sur 0.2 -- -- 94
2020-04-01 20:00:00 9.7 2 Sudeste 10 Sur 0 -- -- 93
2020-04-01 19:00:00 9.8 8 Sudeste 25 Sudeste 0.2 -- -- 91
2020-04-01 18:00:00 10.1 18 Sudeste 31 Sudeste 0.2 -- -- 90
2020-04-01 17:00:00 10.2 14 Sudeste 27 Sudeste 0 -- -- 90
2020-04-01 16:00:00 10.5 12 Sudeste 18 Sudeste 0.2 -- -- 89
2020-04-01 15:00:00 9.5 3 Este 7 Este 0.2 -- -- 94
2020-04-01 14:00:00 8 2 Nordeste 5 Norte 2.2 -- -- 96
2020-04-01 13:00:00 7.7 3 Norte 6 Noroeste 2 -- -- 97
2020-04-01 12:00:00 7.3 2 Noroeste 4 Este 2.6 -- -- 98
2020-04-01 11:00:00 6.9 0 Calma 8 Nordeste 0.8 -- -- 98
2020-04-01 10:00:00 6.5 5 Nordeste 9 Nordeste 1 -- -- 98
2020-04-01 09:00:00 6.1 3 Norte 5 Sudoeste 0.6 -- -- 98
2020-04-01 08:00:00 5.8 4 Sur 6 Sudoeste 0 -- -- 97
2020-04-01 07:00:00 5.9 0 Calma 6 Noroeste 0 -- -- 97
2020-04-01 06:00:00 5.6 4 Noroeste 6 Noroeste 0 -- -- 97
2020-04-01 05:00:00 5.5 4 Noroeste 6 Noroeste 0.4 -- -- 97
2020-04-01 04:00:00 5.5 0 Calma 4 Nordeste 0.2 -- -- 97
2020-04-01 03:00:00 5.3 0 Calma 4 Sudoeste 0 -- -- 96
2020-04-01 02:00:00 5.4 2 Sur 4 Sur 0 -- -- 96
2020-04-01 01:00:00 5.4 0 Calma 4 Sudeste 0 -- -- 96
2020-04-01 00:00:00 5.2 0 Calma 6 Sudeste 0 -- -- 96
2020-03-31 23:00:00 5.1 2 Sudeste 4 Sudeste 0 -- -- 96
2020-03-31 22:00:00 5.1 3 Sudeste 8 Este 0 -- -- 96
2020-03-31 21:00:00 5.2 0 Calma 4 Sur 0 -- -- 95
2020-03-31 20:00:00 5.3 2 Sur 6 Sur 0.2 -- -- 95
2020-03-31 19:00:00 5.4 0 Calma 3 Sur 1 -- -- 93
2020-03-31 18:00:00 5.3 0 Calma 5 Sudeste 1.2 -- -- 93
2020-03-31 17:00:00 4.8 0 Calma 4 Sur 0.8 -- -- 94
2020-03-31 16:00:00 4.5 3 Sur 6 Sudeste 1.4 -- -- 94
2020-03-31 15:00:00 4.2 3 Sudeste 9 Sudeste 1.2 -- -- 93
2020-03-31 14:00:00 4.1 0 Calma 5 Sur 0.8 -- -- 95
2020-03-31 13:00:00 3.3 2 Sudeste 5 Nordeste 1.8 -- -- 96
2020-03-31 12:00:00 2.3 3 Nordeste 6 Nordeste 2 -- -- 97
2020-03-31 11:00:00 0.8 0 Calma 2 Norte 1.4 -- -- 97
2020-03-31 10:00:00 0.4 0 Calma -- -- 0.6 -- -- 97
2020-03-31 09:00:00 0.1 0 Calma -- -- 0.2 -- -- 97
2020-03-31 08:00:00 0.2 0 Calma -- -- 0 -- -- 96
2020-03-31 07:00:00 0.1 0 Calma 6 Norte 0.2 -- -- 96
2020-03-31 06:00:00 0.3 7 Norte 14 Nordeste 0 -- -- 95
2020-03-31 05:00:00 0.8 4 Nordeste 20 Sudeste 0.2 -- -- 91
2020-03-31 04:00:00 2.3 3 Noroeste 12 Noroeste 0 -- -- 82
2020-03-31 03:00:00 2.1 6 Noroeste 11 Noroeste 0 -- -- 83
2020-03-31 02:00:00 1.6 6 Noroeste 13 Noroeste 0 -- -- 82
2020-03-31 01:00:00 1.5 7 Noroeste 14 Norte 0 -- -- 82
2020-03-31 00:00:00 2.4 9 Norte 15 Norte 0 -- -- 75
2020-03-30 23:00:00 2.3 10 Norte 14 Norte 0 -- -- 76
2020-03-30 22:00:00 2.2 5 Noroeste 16 Noroeste 0 -- -- 79
2020-03-30 21:00:00 3.6 6 Norte 22 Noroeste 0 -- -- 69
2020-03-30 20:00:00 5.5 16 Noroeste 26 Noroeste 0 -- -- 58
2020-03-30 19:00:00 6.1 21 Noroeste 29 Noroeste 0 -- -- 54
2020-03-30 18:00:00 7.2 15 Norte 35 Norte 0 -- -- 47
2020-03-30 17:00:00 6.8 20 Noroeste 32 Noroeste 0 -- -- 51
2020-03-30 16:00:00 6.9 16 Noroeste 32 Noroeste 0 -- -- 56
2020-03-30 15:00:00 6 19 Noroeste 36 Noroeste 0 -- -- 60
2020-03-30 14:00:00 5.8 24 Noroeste 45 Noroeste 0 -- -- 56
2020-03-30 13:00:00 6.1 16 Norte 33 Noroeste 0 -- -- 54
2020-03-30 12:00:00 4.7 13 Noroeste 32 Norte 0 -- -- 60
2020-03-30 11:00:00 3.7 23 Norte 33 Norte 0 -- -- 71
2020-03-30 10:00:00 3.5 8 Norte 26 Noroeste 0 -- -- 72
2020-03-30 09:00:00 2.2 15 Noroeste 20 Noroeste 0 -- -- 76
2020-03-30 08:00:00 2 8 Norte 23 Norte 0 -- -- 73
2020-03-30 07:00:00 2.2 5 Noroeste 20 Norte 0 -- -- 73
2020-03-30 06:00:00 3.4 15 Norte 26 Norte 0 -- -- 66
2020-03-30 05:00:00 3.5 15 Noroeste 42 Norte 0 -- -- 71
2020-03-30 04:00:00 4 23 Norte 35 Norte 0 -- -- 74
2020-03-30 03:00:00 5 12 Norte 24 Norte 0 -- -- 73
2020-03-30 02:00:00 5.8 18 Norte 39 Noroeste 0 -- -- 74
2020-03-30 01:00:00 6.7 26 Noroeste 38 Noroeste 0 -- -- 71
2020-03-30 00:00:00 7.3 27 Noroeste 41 Noroeste 0 -- -- 76
2020-03-29 23:00:00 7.7 29 Noroeste 52 Oeste 0 -- -- 79
2020-03-29 22:00:00 8 22 Noroeste 43 Noroeste 0 -- -- 81
2020-03-29 21:00:00 8.4 24 Noroeste 37 Noroeste 0 -- -- 80
2020-03-29 20:00:00 9.5 26 Noroeste 46 Oeste 0 -- -- 74
2020-03-29 19:00:00 10.9 23 Noroeste 33 Noroeste 0 -- -- 67
2020-03-29 18:00:00 11 24 Noroeste 43 Norte 0 -- -- 68
2020-03-29 17:00:00 13.2 34 Norte 44 Norte 0 -- -- 60
2020-03-29 16:00:00 13.6 27 Norte 46 Norte 0 -- -- 54
2020-03-29 15:00:00 13.9 26 Norte 42 Noroeste 0 -- -- 55
2020-03-29 14:00:00 14.1 22 Norte 33 Noroeste 0 -- -- 49
2020-03-29 13:00:00 13.5 21 Norte 35 Norte 0 -- -- 49
2020-03-29 12:00:00 12.3 11 Norte 21 Noroeste 0 -- -- 51
2020-03-29 11:00:00 10.5 7 Norte 24 Noroeste 0 -- -- 60
2020-03-29 10:00:00 8 8 Noroeste 13 Noroeste 0 -- -- 71
2020-03-29 09:00:00 4.6 12 Noroeste 14 Noroeste 0 -- -- 80
2020-03-29 08:00:00 3.2 10 Noroeste 14 Noroeste 0 -- -- 79
2020-03-29 07:00:00 4.6 5 Noroeste 10 Noroeste 0 -- -- 65
2020-03-29 06:00:00 4.2 7 Noroeste 10 Noroeste 0 -- -- 71
2020-03-29 05:00:00 4.4 4 Oeste 11 Noroeste 0 -- -- 74
2020-03-29 03:00:00 5.6 10 Noroeste 19 Noroeste 0 -- -- 73
2020-03-29 01:00:00 5.7 13 Noroeste 17 Noroeste 0 -- -- 77
2020-03-29 00:00:00 7 8 Noroeste 13 Norte 0 -- -- 73
2020-03-28 23:00:00 9.2 9 Norte 21 Norte 0 -- -- 66
2020-03-28 22:00:00 10.4 14 Norte 30 Norte 0 -- -- 62
2020-03-28 21:00:00 11.6 18 Norte 27 Norte 0 -- -- 59
2020-03-28 20:00:00 12.8 14 Norte 29 Norte 0 -- -- 57
2020-03-28 19:00:00 15 18 Norte 27 Norte 0 -- -- 52
2020-03-28 18:00:00 17.2 5 Oeste 11 Noroeste 0 -- -- 43
2020-03-28 17:00:00 17.6 4 Noroeste 14 Norte 0 -- -- 41
2020-03-28 16:00:00 17.4 3 Noroeste 13 Noroeste 0 -- -- 46
2020-03-28 15:00:00 16.4 4 Noroeste 14 Norte 0 -- -- 46
2020-03-28 14:00:00 15.3 5 Norte 11 Oeste 0 -- -- 50
2020-03-28 13:00:00 13.8 0 Calma 10 Oeste 0 -- -- 52
2020-03-28 12:00:00 11.9 5 Noroeste 12 Sudoeste 0 -- -- 56
2020-03-28 11:00:00 10.2 2 Noroeste 6 Oeste 0 -- -- 70
2020-03-28 10:00:00 7.1 3 Noroeste 9 Noroeste 0 -- -- 80
2020-03-28 09:00:00 4.2 3 Noroeste 4 Noroeste 0 -- -- 87
2020-03-28 08:00:00 2.1 0 Calma 5 Norte 0 -- -- 89
2020-03-28 07:00:00 1 0 Calma 4 Oeste 0 -- -- 90
2020-03-28 06:00:00 1.4 2 Oeste 4 Noroeste 0 -- -- 90
2020-03-28 05:00:00 2.1 0 Calma 6 Noroeste 0 -- -- 86
2020-03-28 04:00:00 2.6 6 Noroeste 9 Noroeste 0 -- -- 87
2020-03-28 03:00:00 3.3 0 Calma 4 Noroeste 0 -- -- 85
2020-03-28 02:00:00 4.3 3 Oeste 6 Oeste 0 -- -- 81
2020-03-28 01:00:00 4.5 2 Noroeste 8 Noroeste 0 -- -- 80
2020-03-28 00:00:00 5.4 5 Noroeste 7 Noroeste 0 -- -- 77
2020-03-27 23:00:00 5.9 8 Noroeste 15 Norte 0 -- -- 75
2020-03-27 22:00:00 7.4 6 Noroeste 19 Norte 0 -- -- 69
2020-03-27 21:00:00 8.2 10 Norte 20 Norte 0 -- -- 66
2020-03-27 20:00:00 10.1 6 Norte 17 Noroeste 0 -- -- 54
2020-03-27 19:00:00 11.8 3 Sur 10 Sur 0 -- -- 49
2020-03-27 18:00:00 13.6 3 Sur 11 Sur 0 -- -- 42
2020-03-27 17:00:00 14.9 4 Sudoeste 13 Oeste 0 -- -- 41
2020-03-27 16:00:00 14.1 3 Oeste 16 Sudeste 0 -- -- 35
2020-03-27 15:00:00 13.8 5 Sudoeste 13 Sur 0 -- -- 44
2020-03-27 14:00:00 13.2 8 Sudeste 27 Sudoeste 0 -- -- 45
2020-03-27 13:00:00 11.5 3 Nordeste 13 Nordeste 0 -- -- 45
2020-03-27 12:00:00 10.3 3 Norte 14 Noroeste 0 -- -- 56
2020-03-27 11:00:00 8.8 2 Norte 12 Noroeste 0 -- -- 59
2020-03-27 10:00:00 6.8 5 Oeste 9 Oeste 0 -- -- 66
2020-03-27 09:00:00 4.1 6 Noroeste 8 Noroeste 0 -- -- 79
2020-03-27 08:00:00 0.9 5 Noroeste 15 Noroeste 0 -- -- 92
2020-03-27 07:00:00 0.5 9 Noroeste 12 Noroeste 0 -- -- 90
2020-03-27 06:00:00 2.2 3 Oeste 8 Noroeste 0 -- -- 85
2020-03-27 05:00:00 2.8 3 Noroeste 4 Noroeste 0 -- -- 86
2020-03-27 04:00:00 3.2 3 Noroeste 6 Noroeste 0 -- -- 84
2020-03-27 03:00:00 2.4 0 Calma 5 Oeste 0 -- -- 87
2020-03-27 02:00:00 1.6 0 Calma 4 Noroeste 0 -- -- 86
2020-03-27 01:00:00 1.6 4 Noroeste 9 Noroeste 0 -- -- 81
2020-03-27 00:00:00 1.6 5 Noroeste 8 Noroeste 0 -- -- 79
2020-03-26 23:00:00 1.9 8 Noroeste 23 Nordeste 0 -- -- 79
2020-03-26 22:00:00 4.4 11 Norte 18 Nordeste 0 -- -- 68
2020-03-26 21:00:00 4.4 10 Noroeste 26 Noroeste 0 -- -- 69
2020-03-26 20:00:00 5.2 15 Noroeste 39 Noroeste 0 -- -- 65
2020-03-26 19:00:00 7.6 27 Noroeste 39 Noroeste 0 -- -- 53
2020-03-26 18:00:00 9.4 25 Noroeste 41 Noroeste 0 -- -- 45
2020-03-26 17:00:00 10.9 27 Noroeste 42 Noroeste 0 -- -- 43
2020-03-26 16:00:00 11.2 28 Noroeste 42 Noroeste 0 -- -- 44
2020-03-26 15:00:00 11.7 29 Noroeste 49 Noroeste 0 -- -- 48
2020-03-26 14:00:00 11.2 32 Noroeste 60 Noroeste 0 -- -- 42
2020-03-26 13:00:00 10.5 37 Noroeste 52 Noroeste 0 -- -- 51
2020-03-26 12:00:00 10 33 Noroeste 61 Noroeste 0 -- -- 51
2020-03-26 11:00:00 9.5 42 Noroeste 62 Noroeste 0 -- -- 55
2020-03-26 10:00:00 8.5 27 Noroeste 49 Noroeste 0 -- -- 65
2020-03-26 09:00:00 8.1 29 Noroeste 43 Noroeste 0 -- -- 71
2020-03-26 08:00:00 7.6 26 Noroeste 38 Noroeste 0 -- -- 74
2020-03-26 07:00:00 7.2 20 Oeste 28 Noroeste 0 -- -- 78
2020-03-26 06:00:00 6.5 22 Oeste 32 Oeste 0 -- -- 85
2020-03-26 05:00:00 5.9 14 Oeste 25 Oeste 0 -- -- 88
2020-03-26 04:00:00 4.9 4 Sudoeste 24 Oeste 0 -- -- 85
2020-03-26 03:00:00 3.2 5 Noroeste 13 Noroeste 0 -- -- 89
2020-03-26 02:00:00 2.6 2 Oeste 10 Sudoeste 0 -- -- 87
2020-03-26 01:00:00 3.4 5 Oeste 14 Noroeste 0 -- -- 82
2020-03-26 00:00:00 3.4 8 Noroeste 17 Noroeste 0 -- -- 83
2020-03-25 23:00:00 5.1 13 Noroeste 19 Noroeste 0 -- -- 74
2020-03-25 22:00:00 6 2 Sudoeste 11 Sur 0 -- -- 90
2020-03-25 21:00:00 6.5 7 Sur 10 Sur 0 -- -- 88
2020-03-25 20:00:00 8.1 9 Sudeste 20 Sudeste 0 -- -- 85
2020-03-25 19:00:00 9.7 15 Sudeste 41 Sudeste 0 -- -- 81
2020-03-25 18:00:00 11.2 23 Sudeste 31 Sudeste 0 -- -- 76
2020-03-25 17:00:00 13.1 15 Sudeste 24 Sudeste 0 -- -- 70
2020-03-25 16:00:00 12.9 13 Sudeste 23 Sudeste 0 -- -- 69
2020-03-25 15:00:00 12.9 17 Sudeste 35 Sudeste 0 -- -- 74
2020-03-25 14:00:00 11 23 Sudeste 36 Sudeste 0 -- -- 79
2020-03-25 13:00:00 10.1 27 Sudeste 39 Sudeste 0 -- -- 84
2020-03-25 12:00:00 10.2 17 Sudeste 22 Sur 0 -- -- 85
2020-03-25 11:00:00 9.3 15 Sudeste 21 Sudeste 0 -- -- 89
2020-03-25 10:00:00 9 12 Sudeste 17 Sudeste 0 -- -- 92
2020-03-25 09:00:00 8.4 12 Sur 15 Sur 0 -- -- 92
2020-03-25 08:00:00 7.9 8 Sudeste 12 Sudeste 0 -- -- 94
2020-03-25 07:00:00 7.2 6 Sudeste 9 Sudeste 0 -- -- 94
2020-03-25 06:00:00 7.6 0 Calma 3 Sudoeste 0 -- -- 94
2020-03-25 05:00:00 7.2 0 Calma 5 Sur 0 -- -- 94
2020-03-25 04:00:00 6.7 2 Sur 5 Sur 0 -- -- 94
2020-03-25 03:00:00 6.7 3 Oeste 13 Sudeste 0 -- -- 92
2020-03-25 02:00:00 7.4 10 Sudeste 24 Sudeste 0 -- -- 90
2020-03-25 01:00:00 7.9 15 Sudeste 21 Sudeste 0 -- -- 92
2020-03-25 00:00:00 7.9 2 Sudeste 9 Nordeste 0 -- -- 91
2020-03-24 23:00:00 8.8 3 Noroeste 8 Noroeste 0 -- -- 90
2020-03-24 22:00:00 8.9 8 Noroeste 15 Noroeste 0 -- -- 89
2020-03-24 21:00:00 10.4 5 Noroeste 9 Noroeste 0 -- -- 85
2020-03-24 20:00:00 12.4 2 Sur 5 Sudoeste 0 -- -- 75
2020-03-24 19:00:00 14 4 Sudoeste 8 Sur 0 -- -- 70
2020-03-24 18:00:00 15.3 3 Sudoeste 14 Sur 0 -- -- 65
2020-03-24 17:00:00 16.2 9 Sur 20 Sur 0 -- -- 62
2020-03-24 16:00:00 16.6 6 Sudoeste 14 Sur 0 -- -- 64
2020-03-24 15:00:00 16 5 Sur 14 Sur 0 -- -- 65
2020-03-24 14:00:00 14.9 8 Sudeste 14 Sur 0 -- -- 68
2020-03-24 13:00:00 14 6 Sur 18 Sudeste 0 -- -- 70
2020-03-24 12:00:00 13.2 10 Sudeste 20 Sudeste 0 -- -- 74
2020-03-24 11:00:00 12.1 11 Sudeste 19 Sudeste 0 -- -- 80
2020-03-24 10:00:00 10.7 7 Sudeste 12 Sudeste 0 -- -- 86
2020-03-24 09:00:00 10.2 10 Sudeste 17 Sudeste 0 -- -- 89
2020-03-24 08:00:00 9.7 9 Sudeste 14 Este 0 -- -- 91
2020-03-24 07:00:00 9.3 2 Norte 8 Noroeste 0 -- -- 95
2020-03-24 06:00:00 9.3 0 Calma 5 Norte 0 -- -- 94
2020-03-24 05:00:00 9.6 0 Calma 4 Oeste 0 -- -- 93
2020-03-24 04:00:00 10.1 0 Calma 6 Este 0 -- -- 91
2020-03-24 03:00:00 10.1 5 Este 15 Sudeste 0 -- -- 91
2020-03-24 02:00:00 10.1 7 Sudeste 14 Sudeste 0 -- -- 87
2020-03-24 01:00:00 10.2 5 Sudeste 8 Este 0 -- -- 90
2020-03-24 00:00:00 10.8 0 Calma 9 Este 0 -- -- 85
2020-03-23 23:00:00 10.8 4 Este 14 Este 0 -- -- 86
2020-03-23 22:00:00 10.3 3 Norte 7 Norte 0 -- -- 92
2020-03-23 21:00:00 10.9 5 Norte 9 Norte 0 -- -- 89
2020-03-23 20:00:00 11.3 5 Nordeste 19 Este 0 -- -- 85
2020-03-23 19:00:00 11.6 12 Este 23 Sudeste 1.4 -- -- 84
2020-03-23 18:00:00 12.9 24 Sudeste 33 Sudeste 0 -- -- 78
2020-03-23 17:00:00 15.3 9 Sur 14 Sudeste 0 -- -- 70
2020-03-23 16:00:00 15.2 6 Este 13 Nordeste 0 -- -- 70
2020-03-23 15:00:00 15 4 Sur 26 Sudeste 1.6 -- -- 70
2020-03-23 14:00:00 13.7 15 Sudeste 22 Sudeste 0 -- -- 77
2020-03-23 13:00:00 14 9 Sudeste 14 Este 0 -- -- 72
2020-03-23 12:00:00 13.6 4 Nordeste 12 Sudeste 0 -- -- 72
2020-03-23 11:00:00 14 3 Noroeste 21 Este 0 -- -- 72
2020-03-23 10:00:00 12.5 7 Norte 12 Norte 0 -- -- 81
2020-03-23 09:00:00 10.3 6 Norte 13 Norte 0 -- -- 89
2020-03-23 08:00:00 9.6 7 Norte 13 Norte 0 -- -- 91
2020-03-23 07:00:00 8.8 6 Noroeste 13 Norte 0 -- -- 93
2020-03-23 06:00:00 8.9 9 Noroeste 13 Noroeste 0 -- -- 95
2020-03-23 05:00:00 8.9 6 Norte 13 Norte 0 -- -- 94
2020-03-23 04:00:00 9.2 4 Noroeste 13 Noroeste 0 -- -- 94
2020-03-23 03:00:00 9.5 5 Noroeste 8 Norte 0.2 -- -- 93
2020-03-23 02:00:00 10 8 Este 15 Este 0.4 -- -- 89
2020-03-23 01:00:00 10.1 3 Nordeste 19 Nordeste 0 -- -- 84
2020-03-23 00:00:00 9.8 10 Norte 16 Norte 0 -- -- 86
2020-03-22 23:00:00 9.9 8 Noroeste 22 Norte 0 -- -- 86
2020-03-22 22:00:00 11.4 12 Norte 25 Norte 0 -- -- 79
2020-03-22 21:00:00 11.9 13 Norte 21 Nordeste 0 -- -- 77
2020-03-22 20:00:00 12.8 5 Este 8 Este 0 -- -- 70
2020-03-22 19:00:00 13.6 4 Sudeste 14 Sur 0 -- -- 69
2020-03-22 18:00:00 15.2 9 Sudeste 23 Sudeste 0 -- -- 61
2020-03-22 17:00:00 16.4 13 Sur 23 Sur 0 -- -- 60
2020-03-22 16:00:00 16.1 14 Sudeste 22 Sudeste 0 -- -- 57
2020-03-22 15:00:00 16.5 15 Sudeste 21 Sudeste 0 -- -- 58
2020-03-22 14:00:00 15.2 10 Sur 21 Sudeste 0 -- -- 61
2020-03-22 13:00:00 14.7 8 Sudeste 14 Sudeste 0 -- -- 64
2020-03-22 12:00:00 13.6 4 Sur 12 Sudeste 0 -- -- 64
2020-03-22 11:00:00 10.2 3 Sudoeste 6 Sudoeste 0 -- -- 80
2020-03-22 10:00:00 7.7 2 Sur 4 Sur 0 -- -- 89
2020-03-22 09:00:00 5.2 0 Calma 4 Norte 0 -- -- 95
2020-03-22 08:00:00 3.2 6 Noroeste 10 Norte 0 -- -- 95
2020-03-22 07:00:00 3.2 2 Oeste 6 Norte 0 -- -- 91
2020-03-22 06:00:00 4.1 7 Norte 12 Norte 0 -- -- 93
2020-03-22 05:00:00 4.6 4 Norte 9 Norte 0 -- -- 91
2020-03-22 04:00:00 4.8 2 Noroeste 10 Norte 0 -- -- 90
2020-03-22 03:00:00 5.2 8 Norte 11 Noroeste 0 -- -- 90
2020-03-22 02:00:00 5.6 7 Norte 11 Norte 0 -- -- 89
2020-03-22 01:00:00 5.8 7 Norte 11 Norte 0 -- -- 89
2020-03-22 00:00:00 6.5 7 Norte 9 Norte 0 -- -- 86
2020-03-21 23:00:00 7.1 8 Norte 10 Norte 0 -- -- 85
2020-03-21 22:00:00 7.7 3 Norte 9 Noroeste 0 -- -- 84
2020-03-21 21:00:00 10.1 3 Norte 6 Noroeste 0 -- -- 74
2020-03-21 20:00:00 11 4 Nordeste 9 Este 0 -- -- 71
2020-03-21 19:00:00 11.9 9 Este 23 Sudeste 0 -- -- 70
2020-03-21 18:00:00 13.6 19 Sudeste 33 Sudeste 0 -- -- 56
2020-03-21 17:00:00 14.7 23 Sudeste 32 Este 0 -- -- 56
2020-03-21 16:00:00 14.9 23 Sudeste 34 Sudeste 0 -- -- 59
2020-03-21 15:00:00 14.6 20 Sudeste 30 Este 0 -- -- 62
2020-03-21 14:00:00 14.1 20 Sudeste 39 Sudeste 0 -- -- 65
2020-03-21 13:00:00 13.5 18 Sudeste 29 Este 0 -- -- 68
2020-03-21 12:00:00 12.7 15 Sudeste 25 Sudeste 0 -- -- 70
2020-03-21 11:00:00 10.8 11 Sudeste 23 Sudeste 0 -- -- 79
2020-03-21 10:00:00 9.6 6 Sudeste 10 Sudeste 0 -- -- 82
2020-03-21 09:00:00 6.7 0 Calma 4 Sur 0 -- -- 91
2020-03-21 08:00:00 5.5 0 Calma 5 Noroeste 0 -- -- 93
2020-03-21 07:00:00 5.8 3 Nordeste 8 Sudeste 0 -- -- 92
2020-03-21 06:00:00 5.6 3 Norte 15 Este 0 -- -- 93
2020-03-21 05:00:00 5.8 6 Sudeste 12 Este 0 -- -- 90
2020-03-21 04:00:00 5.6 2 Norte 9 Este 0 -- -- 92
2020-03-21 03:00:00 6.6 7 Este 14 Sudeste 0 -- -- 89
2020-03-21 02:00:00 6.6 10 Sudeste 16 Sudeste 0 -- -- 89
2020-03-21 01:00:00 7.2 9 Sudeste 15 Sudeste 0 -- -- 88
2020-03-21 00:00:00 7.8 10 Sudeste 14 Sudeste 0 -- -- 88
2020-03-20 23:00:00 8.4 5 Sudeste 19 Sudeste 0 -- -- 85
2020-03-20 22:00:00 9.7 15 Sudeste 20 Sudeste 0 -- -- 83
2020-03-20 21:00:00 9.5 11 Sudeste 17 Sudeste 0 -- -- 87
2020-03-20 20:00:00 9.7 12 Sudeste 17 Sudeste 0 -- -- 84
2020-03-20 19:00:00 12.2 14 Sudeste 34 Sudeste 0 -- -- 74
2020-03-20 18:00:00 13.6 24 Sudeste 41 Sudeste 0 -- -- 69
2020-03-20 17:00:00 14.3 29 Sudeste 41 Sudeste 0 -- -- 65
2020-03-20 16:00:00 14.6 27 Sudeste 42 Sudeste 0 -- -- 66
2020-03-20 15:00:00 13.7 26 Sudeste 36 Sudeste 0 -- -- 70
2020-03-20 14:00:00 13.9 25 Sudeste 37 Sudeste 0 -- -- 70
2020-03-20 13:00:00 12.5 17 Sudeste 27 Sudeste 0 -- -- 73
2020-03-20 12:00:00 10.4 15 Sudeste 25 Sur 0 -- -- 82
2020-03-20 11:00:00 9.8 20 Sudeste 31 Sudeste 0 -- -- 83
2020-03-20 10:00:00 9 12 Sudeste 18 Este 0 -- -- 87
2020-03-20 09:00:00 7.3 6 Este 12 Este 0 -- -- 92
2020-03-20 08:00:00 4.4 0 Calma 4 Sudeste 0 -- -- 94
2020-03-20 07:00:00 4.5 0 Calma 7 Sudeste 0 -- -- 93
2020-03-20 06:00:00 5.2 7 Sudeste 11 Sudeste 0 -- -- 90
2020-03-20 05:00:00 6 0 Calma 8 Sudeste 0 -- -- 90
2020-03-20 04:00:00 6.8 3 Sudeste 21 Sudeste 0 -- -- 88
2020-03-20 03:00:00 7.1 10 Sur 18 Sudeste 0 -- -- 88
2020-03-20 02:00:00 7.7 13 Sudeste 20 Sudeste 0 -- -- 91
2020-03-20 01:00:00 7.9 10 Sudeste 22 Sudeste 0 -- -- 91
2020-03-20 00:00:00 8.1 14 Sudeste 19 Sudeste 0 -- -- 90
2020-03-19 23:00:00 8.9 11 Sudeste 17 Sudeste 0 -- -- 89
2020-03-19 22:00:00 10.1 9 Sudeste 21 Sudeste 0 -- -- 85
2020-03-19 21:00:00 11.3 8 Este 10 Este 0 -- -- 88
2020-03-19 20:00:00 11.5 5 Sur 9 Sur 0 -- -- 85
2020-03-19 19:00:00 13.4 8 Sur 15 Sur 0 -- -- 81
2020-03-19 18:00:00 15.1 14 Sudeste 25 Sudeste 0 -- -- 72
2020-03-19 17:00:00 15.9 15 Sur 25 Sur 0 -- -- 72
2020-03-19 16:00:00 16.6 16 Sudeste 28 Sudeste 0 -- -- 72
2020-03-19 15:00:00 16.8 13 Sudeste 27 Sudeste 0 -- -- 72
2020-03-19 14:00:00 16.7 15 Sur 24 Sudeste 0 -- -- 69
2020-03-19 13:00:00 15.3 17 Sudeste 23 Este 0 -- -- 78
2020-03-19 12:00:00 13.7 8 Sudeste 12 Sudeste 0 -- -- 85
2020-03-19 11:00:00 11 2 Sur 5 Sur 0 -- -- 94
2020-03-19 10:00:00 8.9 0 Calma 4 Noroeste 0 -- -- 98
2020-03-19 09:00:00 6.9 4 Noroeste 5 Noroeste 0 -- -- 97
2020-03-19 08:00:00 6.2 0 Calma 4 Sudeste 0 -- -- 97
2020-03-19 07:00:00 6.8 2 Norte 5 Noroeste 0 -- -- 96
2020-03-19 06:00:00 7.1 3 Norte 4 Noroeste 0 -- -- 97
2020-03-19 05:00:00 7.6 0 Calma 7 Noroeste 0 -- -- 96
2020-03-19 04:00:00 8.2 6 Norte 9 Norte 0 -- -- 96
2020-03-19 03:00:00 8.4 5 Norte 8 Norte 0 -- -- 96
2020-03-19 02:00:00 8.4 6 Norte 8 Noroeste 0 -- -- 95
2020-03-19 01:00:00 8.9 3 Noroeste 8 Noroeste 0 -- -- 94
2020-03-19 00:00:00 9.4 2 Norte 7 Norte 0 -- -- 94
2020-03-18 23:00:00 9.8 5 Norte 7 Noroeste 0 -- -- 94
2020-03-18 22:00:00 10.5 4 Noroeste 7 Noroeste 0 -- -- 91
2020-03-18 21:00:00 11.7 2 Sudeste 5 Sur 0 -- -- 82
2020-03-18 20:00:00 12.5 5 Sur 7 Sur 0 -- -- 87
2020-03-18 19:00:00 14 4 Sudeste 10 Sudeste 0 -- -- 83
2020-03-18 18:00:00 15.1 8 Sudeste 19 Sudeste 0 -- -- 79
2020-03-18 17:00:00 16.2 10 Sudeste 17 Sudeste 0 -- -- 69
2020-03-18 16:00:00 16.4 11 Sudeste 20 Sudeste 0 -- -- 71
2020-03-18 15:00:00 15.8 10 Sudeste 16 Sudeste 0 -- -- 74
2020-03-18 14:00:00 16 7 Sudeste 14 Este 0 -- -- 78
2020-03-18 13:00:00 15 3 Sur 9 Sur 0 -- -- 77
2020-03-18 12:00:00 13 2 Este 8 Sur 0.2 -- -- 85
2020-03-18 11:00:00 10.2 3 Oeste 5 Oeste 0 -- -- 96
2020-03-18 10:00:00 9 2 Sudeste 5 Noroeste 0 -- -- 99
2020-03-18 09:00:00 5.7 0 Calma 5 Noroeste 0 -- -- 98
2020-03-18 08:00:00 5.4 0 Calma 5 Norte 0 -- -- 98
2020-03-18 07:00:00 5.3 3 Oeste 6 Noroeste 0 -- -- 98
2020-03-18 06:00:00 5.7 0 Calma 4 Norte 0 -- -- 97
2020-03-18 05:00:00 5.9 3 Norte 5 Noroeste 0 -- -- 97
2020-03-18 04:00:00 6.4 3 Noroeste 5 Noroeste 0 -- -- 97
2020-03-18 03:00:00 5.5 0 Calma 5 Noroeste 0 -- -- 97
2020-03-18 02:00:00 6.5 3 Norte 8 Norte 0 -- -- 96
2020-03-18 01:00:00 7.6 6 Norte 9 Norte 0 -- -- 96
2020-03-18 00:00:00 7.4 7 Norte 10 Norte 0 -- -- 96
2020-03-17 23:00:00 8.5 3 Noroeste 4 Noroeste 0 -- -- 94
2020-03-17 22:00:00 9 2 Noroeste 7 Noroeste 0 -- -- 93
2020-03-17 21:00:00 10.5 3 Norte 4 Norte 0 -- -- 92
2020-03-17 20:00:00 11.3 2 Noroeste 7 Noroeste 0 -- -- 91
2020-03-17 19:00:00 12 6 Noroeste 9 Noroeste 0 -- -- 87
2020-03-17 18:00:00 12.3 3 Noroeste 5 Noroeste 0 -- -- 85
2020-03-17 17:00:00 12.4 2 Noroeste 8 Norte 0 -- -- 83
2020-03-17 16:00:00 12.1 6 Norte 13 Norte 0 -- -- 83
2020-03-17 15:00:00 11.9 6 Norte 15 Norte 0 -- -- 84
2020-03-17 14:00:00 11.4 10 Norte 17 Norte 0 -- -- 84
2020-03-17 13:00:00 10.8 9 Norte 14 Norte 0 -- -- 86
2020-03-17 12:00:00 9.9 7 Oeste 17 Noroeste 0 -- -- 91
2020-03-17 11:00:00 10.4 12 Norte 24 Norte 0 -- -- 85
2020-03-17 10:00:00 10.4 12 Norte 25 Norte 0 -- -- 84
2020-03-17 09:00:00 10.2 17 Norte 26 Norte 0 -- -- 84
2020-03-17 08:00:00 10 15 Norte 25 Norte 0 -- -- 84
2020-03-17 07:00:00 9.8 16 Norte 26 Norte 0 -- -- 85
2020-03-17 06:00:00 9.7 18 Norte 27 Norte 0 -- -- 86
2020-03-17 05:00:00 9.4 11 Norte 25 Norte 0 -- -- 87
2020-03-17 04:00:00 9.4 12 Norte 23 Norte 0 -- -- 87
2020-03-17 03:00:00 9.2 9 Norte 19 Norte 0 -- -- 88
2020-03-17 02:00:00 8.4 10 Noroeste 15 Noroeste 0 -- -- 93
2020-03-17 01:00:00 8.6 7 Noroeste 16 Noroeste 0 -- -- 92
2020-03-17 00:00:00 8 12 Noroeste 18 Oeste 2.2 -- -- 96
2020-03-16 23:00:00 8.3 6 Oeste 37 Norte 2.8 -- -- 92
2020-03-16 22:00:00 9.2 25 Norte 44 Noroeste 0.2 -- -- 85
2020-03-16 21:00:00 9.2 27 Norte 45 Norte 0 -- -- 84
2020-03-16 20:00:00 9 28 Norte 42 Norte 0.4 -- -- 85
2020-03-16 19:00:00 8.9 26 Norte 40 Norte 0.2 -- -- 85
2020-03-16 18:00:00 8.8 24 Norte 39 Norte 0 -- -- 86
2020-03-16 17:00:00 8.6 15 Norte 29 Norte 0 -- -- 88
2020-03-16 16:00:00 8 14 Noroeste 24 Norte 1.4 -- -- 92
2020-03-16 15:00:00 7.6 15 Norte 38 Norte 1.6 -- -- 92
2020-03-16 14:00:00 7.5 22 Norte 38 Norte 0.8 -- -- 91
2020-03-16 13:00:00 -- -- -- -- -- -- -- -- --
2020-03-16 12:00:00 -- -- -- -- -- -- -- -- --
2020-03-16 11:00:00 -- -- -- -- -- -- -- -- --
2020-03-16 10:00:00 -- -- -- -- -- -- -- -- --
2020-03-16 09:00:00 -- -- -- -- -- -- -- -- --
2020-03-16 08:00:00 -- -- -- -- -- -- -- -- --
2020-03-16 07:00:00 -- -- -- -- -- -- -- -- --
2020-03-16 06:00:00 -- -- -- -- -- -- -- -- --
2020-03-16 05:00:00 -- -- -- -- -- -- -- -- --
2020-03-16 04:00:00 -- -- -- -- -- -- -- -- --
2020-03-16 03:00:00 -- -- -- -- -- -- -- -- --
2020-03-16 02:00:00 -- -- -- -- -- -- -- -- --
2020-03-16 01:00:00 -- -- -- -- -- -- -- -- --
2020-03-16 00:00:00 -- -- -- -- -- -- -- -- --
2020-03-15 23:00:00 -- -- -- -- -- -- -- -- --
2020-03-15 22:00:00 -- -- -- -- -- -- -- -- --
2020-03-15 21:00:00 -- -- -- -- -- -- -- -- --
2020-03-15 20:00:00 -- -- -- -- -- -- -- -- --
2020-03-15 19:00:00 -- -- -- -- -- -- -- -- --
2020-03-15 18:00:00 14.8 24 Sudeste 34 Sudeste 0 -- -- 73
2020-03-15 17:00:00 16.8 7 Sudeste 28 Sudeste 0 -- -- 70
2020-03-15 16:00:00 16.1 28 Sudeste 46 Sudeste 0 -- -- 65
2020-03-15 15:00:00 16.4 26 Sudeste 41 Sudeste 0 -- -- 61
2020-03-15 14:00:00 17.5 31 Sudeste 53 Sudeste 0 -- -- 62
2020-03-15 13:00:00 16.6 29 Sudeste 50 Sudeste 0 -- -- 64
2020-03-15 12:00:00 15.2 15 Sudeste 36 Sudeste 0 -- -- 63
2020-03-15 11:00:00 12.1 5 Sur 11 Sur 0 -- -- 76
2020-03-15 10:00:00 7.9 3 Sur 8 Noroeste 0 -- -- 86
2020-03-15 09:00:00 3.6 5 Oeste 26 Nordeste 0 -- -- 89
2020-03-15 08:00:00 1.3 0 Calma 6 Norte 0 -- -- 92
2020-03-15 07:00:00 1.5 2 Norte 8 Noroeste 0 -- -- 92
2020-03-15 06:00:00 1.1 6 Noroeste 10 Norte 0 -- -- 91
2020-03-15 05:00:00 1.4 8 Norte 10 Noroeste 0 -- -- 92
2020-03-15 04:00:00 1.6 6 Norte 8 Noroeste 0 -- -- 92
2020-03-15 03:00:00 2.9 2 Este 6 Noroeste 0 -- -- 89
2020-03-15 02:00:00 3.5 4 Noroeste 9 Noroeste 0 -- -- 88
2020-03-15 01:00:00 4.1 6 Norte 11 Noroeste 0 -- -- 86
2020-03-15 00:00:00 5.9 5 Noroeste 21 Noroeste 0 -- -- 83
2020-03-14 23:00:00 6.3 8 Noroeste 19 Norte 0 -- -- 81
2020-03-14 22:00:00 8.9 15 Norte 22 Norte 0 -- -- 72
2020-03-14 21:00:00 9 15 Norte 23 Norte 0 -- -- 73
2020-03-14 20:00:00 11.1 16 Norte 28 Nordeste 0 -- -- 64
2020-03-14 19:00:00 12.6 19 Norte 28 Norte 0 -- -- 61
2020-03-14 18:00:00 14.1 17 Norte 25 Norte 0 -- -- 57
2020-03-14 17:00:00 15.1 17 Norte 29 Nordeste 0 -- -- 55
2020-03-14 16:00:00 15.6 15 Norte 24 Noroeste 0 -- -- 54
2020-03-14 15:00:00 15.5 8 Noroeste 22 Oeste 0 -- -- 50
2020-03-14 14:00:00 14.8 9 Norte 21 Noroeste 0 -- -- 49
2020-03-14 13:00:00 13.8 9 Norte 20 Norte 0 -- -- 50
2020-03-14 12:00:00 12.2 11 Norte 19 Norte 0 -- -- 57
2020-03-14 11:00:00 10.4 8 Norte 13 Norte 0 -- -- 63
2020-03-14 10:00:00 8.3 6 Noroeste 11 Norte 0 -- -- 68
2020-03-14 09:00:00 5.9 6 Noroeste 10 Noroeste 0 -- -- 82
2020-03-14 08:00:00 3.2 8 Noroeste 14 Noroeste 0 -- -- 84
2020-03-14 07:00:00 2.4 5 Noroeste 10 Noroeste 0 -- -- 87
2020-03-14 06:00:00 2.9 8 Noroeste 13 Noroeste 0 -- -- 88
2020-03-14 05:00:00 3.3 12 Noroeste 18 Noroeste 0 -- -- 89
2020-03-14 04:00:00 4.1 15 Noroeste 21 Noroeste 0 -- -- 90
2020-03-14 03:00:00 4.5 13 Noroeste 18 Noroeste 0 -- -- 89
2020-03-14 02:00:00 4.4 11 Noroeste 16 Noroeste 0 -- -- 89
2020-03-14 01:00:00 5 8 Noroeste 19 Noroeste 0 -- -- 88
2020-03-14 00:00:00 4.4 9 Noroeste 12 Noroeste 0 -- -- 90
2020-03-13 23:00:00 5.7 10 Noroeste 15 Noroeste 0 -- -- 87
2020-03-13 22:00:00 6.1 8 Noroeste 13 Noroeste 0 -- -- 86
2020-03-13 21:00:00 7.4 10 Noroeste 19 Noroeste 0 -- -- 81
2020-03-13 20:00:00 8.8 11 Norte 26 Norte 0 -- -- 76
2020-03-13 19:00:00 10.1 15 Norte 27 Norte 0 -- -- 71
2020-03-13 18:00:00 10.9 19 Norte 33 Norte 0 -- -- 69
2020-03-13 17:00:00 11.9 22 Norte 34 Norte 0 -- -- 68
2020-03-13 16:00:00 13.4 23 Norte 34 Norte 0 -- -- 62
2020-03-13 15:00:00 13.5 23 Norte 33 Nordeste 0 -- -- 62
2020-03-13 14:00:00 13.6 21 Norte 31 Norte 0 -- -- 63
2020-03-13 13:00:00 13.1 21 Norte 29 Norte 0 -- -- 63
2020-03-13 12:00:00 12.6 20 Norte 34 Norte 0 -- -- 67
2020-03-13 11:00:00 12.2 22 Norte 35 Noroeste 0 -- -- 67
2020-03-13 10:00:00 11.1 11 Noroeste 22 Noroeste 0 -- -- 71
2020-03-13 09:00:00 9.5 14 Noroeste 28 Noroeste 0 -- -- 78
2020-03-13 08:00:00 8.8 16 Noroeste 31 Noroeste 0 -- -- 80
2020-03-13 07:00:00 8.5 19 Noroeste 41 Noroeste 0 -- -- 81
2020-03-13 06:00:00 8.6 23 Noroeste 39 Noroeste 0 -- -- 80
2020-03-13 05:00:00 9.1 24 Noroeste 46 Norte 0 -- -- 79
2020-03-13 04:00:00 9.8 26 Norte 38 Noroeste 0 -- -- 81
2020-03-13 03:00:00 10.4 12 Norte 25 Noroeste 0 -- -- 83
2020-03-13 02:00:00 9.8 7 Noroeste 17 Noroeste 0 -- -- 89
2020-03-13 01:00:00 10 6 Noroeste 12 Noroeste 0 -- -- 89
2020-03-13 00:00:00 10.2 5 Noroeste 11 Noroeste 0 -- -- 88
2020-03-12 23:00:00 10.8 9 Noroeste 28 Noroeste 0.2 -- -- 87
2020-03-12 22:00:00 10.8 9 Noroeste 34 Noroeste 1.4 -- -- 89
2020-03-12 21:00:00 11.8 17 Noroeste 25 Noroeste 0 -- -- 80
2020-03-12 20:00:00 12.4 18 Noroeste 30 Norte 0 -- -- 78
2020-03-12 19:00:00 13 20 Norte 40 Norte 0 -- -- 77
2020-03-12 18:00:00 14.3 28 Noroeste 39 Noroeste 0 -- -- 72
2020-03-12 17:00:00 15.3 24 Norte 36 Norte 0 -- -- 71
2020-03-12 16:00:00 16.9 27 Norte 36 Norte 0 -- -- 65
2020-03-12 15:00:00 18.3 18 Norte 27 Norte 0 -- -- 61
2020-03-12 14:00:00 18.1 17 Norte 27 Norte 0 -- -- 62
2020-03-12 13:00:00 17.7 15 Norte 23 Norte 0 -- -- 63
2020-03-12 12:00:00 16.3 15 Norte 25 Norte 0 -- -- 66
2020-03-12 11:00:00 16.2 16 Norte 31 Norte 0 -- -- 71
2020-03-12 10:00:00 13.7 21 Norte 32 Norte 0 -- -- 77
2020-03-12 09:00:00 12.5 21 Norte 43 Norte 0 -- -- 83
2020-03-12 08:00:00 11.8 18 Norte 27 Norte 0 -- -- 84
2020-03-12 07:00:00 10.6 5 Noroeste 11 Norte 0 -- -- 84
2020-03-12 06:00:00 10.3 5 Noroeste 8 Norte 0 -- -- 86
2020-03-12 05:00:00 10 4 Noroeste 13 Norte 0 -- -- 89
2020-03-12 04:00:00 10.1 9 Noroeste 12 Norte 0 -- -- 86
2020-03-12 03:00:00 10.7 4 Noroeste 8 Noroeste 0 -- -- 87
2020-03-12 02:00:00 10.5 4 Norte 10 Noroeste 0 -- -- 89
2020-03-12 01:00:00 10.6 2 Sudeste 10 Noroeste 0 -- -- 87
2020-03-12 00:00:00 11.9 7 Norte 10 Norte 0 -- -- 82
2020-03-11 23:00:00 12.5 4 Norte 9 Norte 0 -- -- 80
2020-03-11 22:00:00 12.4 9 Norte 13 Norte 0 -- -- 81
2020-03-11 21:00:00 12.8 9 Norte 11 Norte 0 -- -- 81
2020-03-11 20:00:00 16.6 4 Norte 6 Noroeste 0 -- -- 69
2020-03-11 19:00:00 19.7 0 Calma 5 Sudoeste 0 -- -- 52
2020-03-11 18:00:00 20.8 4 Sudoeste 9 Sudoeste 0 -- -- 47
2020-03-11 17:00:00 21.8 3 Oeste 7 Sudoeste 0 -- -- 45
2020-03-11 16:00:00 21.5 4 Noroeste 10 Oeste 0 -- -- 45
2020-03-11 15:00:00 20.6 5 Oeste 12 Oeste 0 -- -- 49
2020-03-11 14:00:00 19.9 3 Nordeste 13 Oeste 0 -- -- 57
2020-03-11 13:00:00 18.9 3 Nordeste 9 Sudeste 0 -- -- 59
2020-03-11 12:00:00 16.8 4 Noroeste 8 Oeste 0 -- -- 67
2020-03-11 11:00:00 14.1 3 Sudoeste 8 Sudoeste 0 -- -- 77
2020-03-11 10:00:00 10.9 2 Sur 5 Sur 0 -- -- 82
2020-03-11 09:00:00 7.1 4 Noroeste 9 Noroeste 0 -- -- 90
2020-03-11 08:00:00 5.3 3 Noroeste 6 Norte 0 -- -- 94
2020-03-11 07:00:00 4.5 5 Noroeste 8 Noroeste 0 -- -- 92
2020-03-11 06:00:00 5.4 2 Noroeste 5 Noroeste 0 -- -- 90
2020-03-11 05:00:00 7 4 Norte 5 Norte 0 -- -- 88
2020-03-11 04:00:00 7.3 0 Calma 6 Noroeste 0 -- -- 82
2020-03-11 03:00:00 8.1 3 Noroeste 8 Noroeste 0 -- -- 81
2020-03-11 02:00:00 8.1 6 Oeste 13 Noroeste 0 -- -- 83
2020-03-11 01:00:00 8.7 6 Noroeste 12 Noroeste 0 -- -- 80
2020-03-11 00:00:00 9.8 8 Noroeste 15 Norte 0 -- -- 75